Fairview, Oklahoma
Current Conditions -  °F | °C
As of 2:15 AM on Saturday 25 Oct 2014 (Local Time) from KJWG Reporting Station
Clear Clear  
Wind Chill: 65°   Ceiling: Unl
Heat Index: 65°   Visibility: 10mi
Dew Point: 61°   Wind: 5mph
Humidity: 86%   Direction: 190°S
Pressure: 30.07"   Gusts: NA
Location:  36.27°N, 98.48°W
Report Text: KJWG 250715Z AUTO 19004KT 10SM CLR 18/16 A3007 RMK AO2 T01830159
Loading
Personal Weather Stations






























Interactive Weather Map
Tropical Storm Tracking
New forecast layout! Learn more

10-Day Weather Forecast

Advertisements
Track Severe Weather on mobile